createdAt,value
2023-02-22T00:01:19.086Z,4.38
2023-02-22T00:04:22.016Z,4.00
2023-02-22T00:07:26.318Z,4.47
2023-02-22T00:10:29.370Z,4.30
2023-02-22T00:13:32.311Z,4.68
2023-02-22T00:16:35.345Z,4.25
2023-02-22T00:19:38.565Z,4.90
2023-02-22T00:22:43.783Z,4.57
2023-02-22T00:25:47.491Z,4.35
2023-02-22T00:28:52.731Z,4.20
2023-02-22T00:31:55.805Z,4.80
2023-02-22T00:34:59.012Z,4.53
2023-02-22T00:38:04.340Z,4.30
2023-02-22T00:41:07.465Z,4.10
2023-02-22T00:44:10.395Z,4.68
2023-02-22T00:47:15.341Z,4.65
2023-02-22T00:50:19.574Z,4.28
2023-02-22T00:53:25.210Z,3.88
2023-02-22T00:56:28.208Z,4.30
2023-02-22T00:59:31.783Z,4.38
2023-02-22T01:02:35.297Z,4.43
2023-02-22T01:05:38.741Z,3.60
2023-02-22T01:08:47.421Z,3.75
2023-02-22T01:11:55.189Z,4.03
2023-02-22T01:14:59.551Z,3.70
2023-02-22T01:18:02.559Z,4.13
2023-02-22T01:21:06.514Z,3.97
2023-02-22T01:24:11.548Z,4.18
2023-02-22T01:27:15.120Z,4.10
2023-02-22T01:30:22.566Z,3.80
2023-02-22T01:33:27.148Z,4.47
2023-02-22T01:36:30.027Z,3.75
2023-02-22T01:39:34.555Z,4.00
2023-02-22T01:42:38.128Z,3.97
2023-02-22T01:45:55.384Z,4.38
2023-02-22T01:49:02.242Z,3.95
2023-02-22T01:52:09.929Z,3.83
2023-02-22T01:55:14.325Z,4.03
2023-02-22T01:58:19.846Z,3.85
2023-02-22T02:01:25.226Z,4.32
2023-02-22T02:04:29.109Z,4.18
2023-02-22T02:07:32.048Z,3.90
2023-02-22T02:10:36.634Z,3.90
2023-02-22T02:13:41.996Z,3.90
2023-02-22T02:16:48.661Z,3.78
2023-02-22T02:19:59.351Z,3.85
2023-02-22T02:23:13.370Z,3.33
2023-02-22T02:26:48.594Z,3.70
2023-02-22T02:30:21.478Z,4.07
2023-02-22T02:33:32.745Z,4.13
2023-02-22T02:36:43.034Z,4.03
2023-02-22T02:39:54.145Z,3.83
2023-02-22T02:43:03.054Z,3.67
2023-02-22T02:46:11.203Z,3.60
2023-02-22T02:49:20.266Z,4.00
2023-02-22T02:52:26.105Z,3.30
2023-02-22T02:55:31.610Z,3.40
2023-02-22T02:58:34.912Z,4.03
2023-02-22T03:01:52.902Z,4.18
2023-02-22T03:05:17.659Z,3.67
2023-02-22T03:08:28.880Z,4.00
2023-02-22T03:11:43.142Z,3.60
2023-02-22T03:14:55.989Z,3.40
2023-02-22T03:18:07.631Z,3.60
2023-02-22T03:21:22.753Z,3.60
2023-02-22T03:24:31.248Z,3.92
2023-02-22T03:27:43.595Z,3.58
2023-02-22T03:30:52.825Z,3.58
2023-02-22T03:34:01.938Z,3.45
2023-02-22T03:37:15.918Z,3.78
2023-02-22T03:40:26.409Z,3.40
2023-02-22T03:43:38.046Z,3.80
2023-02-22T03:46:47.318Z,3.83
2023-02-22T03:49:55.703Z,3.88
2023-02-22T03:53:00.112Z,3.90
2023-02-22T03:56:10.468Z,3.85
2023-02-22T03:59:14.733Z,3.97
2023-02-22T04:02:19.079Z,3.65
2023-02-22T04:05:24.849Z,3.55
2023-02-22T04:08:30.265Z,3.53
2023-02-22T04:11:33.306Z,3.40
2023-02-22T04:14:36.482Z,3.60
2023-02-22T04:17:39.425Z,3.72
2023-02-22T04:20:45.352Z,3.80
2023-02-22T04:23:57.764Z,4.43
2023-02-22T04:27:00.723Z,3.70
2023-02-22T04:30:05.957Z,3.70
2023-02-22T04:33:11.784Z,3.22
2023-02-22T04:36:16.109Z,3.75
2023-02-22T04:39:21.820Z,4.00
2023-02-22T04:42:27.117Z,4.07
2023-02-22T04:45:31.437Z,3.80
2023-02-22T04:48:34.673Z,3.67
2023-02-22T04:51:37.669Z,3.78
2023-02-22T04:54:47.690Z,3.55
2023-02-22T04:57:50.786Z,4.10
2023-02-22T05:00:54.125Z,3.92
2023-02-22T05:03:57.145Z,3.47
2023-02-22T05:07:00.112Z,3.60
2023-02-22T05:10:05.189Z,3.58
2023-02-22T05:13:09.271Z,3.80
2023-02-22T05:16:12.566Z,3.95
2023-02-22T05:19:15.594Z,3.60
2023-02-22T05:22:18.820Z,3.53
2023-02-22T05:25:23.295Z,4.00
2023-02-22T05:28:26.946Z,3.10
2023-02-22T05:31:30.056Z,3.13
2023-02-22T05:34:33.780Z,3.47
2023-02-22T05:37:37.234Z,3.55
2023-02-22T05:40:42.561Z,3.08
2023-02-22T05:43:46.082Z,3.65
2023-02-22T05:46:49.178Z,3.78
2023-02-22T05:49:52.193Z,3.70
2023-02-22T05:52:55.517Z,3.65
2023-02-22T05:56:00.042Z,3.67
2023-02-22T05:59:03.241Z,3.70
2023-02-22T06:02:06.329Z,3.63
2023-02-22T06:05:09.827Z,3.75
2023-02-22T06:08:12.929Z,3.38
2023-02-22T06:11:17.721Z,3.72
2023-02-22T06:14:21.029Z,3.30
2023-02-22T06:17:24.049Z,2.92
2023-02-22T06:20:28.669Z,3.42
2023-02-22T06:23:31.811Z,3.70
2023-02-22T06:26:36.368Z,3.53
2023-02-22T06:29:39.364Z,3.47
2023-02-22T06:32:42.515Z,3.20
2023-02-22T06:35:46.807Z,3.42
2023-02-22T06:38:49.799Z,3.10
2023-02-22T06:41:56.379Z,3.20
2023-02-22T06:44:59.376Z,3.30
2023-02-22T06:48:02.499Z,3.38
2023-02-22T06:51:08.242Z,2.65
2023-02-22T06:54:11.690Z,3.35
2023-02-22T06:57:16.196Z,3.30
2023-02-22T07:00:21.012Z,3.50
2023-02-22T07:03:24.065Z,3.15
2023-02-22T07:06:27.100Z,2.90
2023-02-22T07:09:30.212Z,3.30
2023-02-22T07:12:34.641Z,3.38
2023-02-22T07:15:38.009Z,3.38
2023-02-22T07:18:41.040Z,3.40
2023-02-22T07:21:44.077Z,3.78
2023-02-22T07:24:47.876Z,3.33
2023-02-22T07:27:53.459Z,3.10
2023-02-22T07:30:56.496Z,3.30
2023-02-22T07:33:59.509Z,4.47
2023-02-22T07:37:02.729Z,4.07
2023-02-22T07:40:06.239Z,3.75
2023-02-22T07:43:18.453Z,3.95
2023-02-22T07:46:21.793Z,4.03
2023-02-22T07:49:24.791Z,3.95
2023-02-22T07:52:27.797Z,3.25
2023-02-22T07:55:32.894Z,3.55
2023-02-22T07:58:37.252Z,3.50
2023-02-22T08:01:40.433Z,3.92
2023-02-22T08:04:43.921Z,2.95
2023-02-22T08:07:46.935Z,3.53
2023-02-22T08:10:51.489Z,3.60
2023-02-22T08:13:55.913Z,3.30
2023-02-22T08:16:58.892Z,2.97
2023-02-22T08:20:03.284Z,3.28
2023-02-22T08:23:08.146Z,3.35
2023-02-22T08:26:15.616Z,3.78
2023-02-22T08:29:20.023Z,3.35
2023-02-22T08:32:23.904Z,3.40
2023-02-22T08:35:28.098Z,3.65
2023-02-22T08:38:32.696Z,3.30
2023-02-22T08:41:35.617Z,3.65
2023-02-22T08:44:40.672Z,3.35
2023-02-22T08:47:44.202Z,3.38
2023-02-22T08:50:47.275Z,3.40
2023-02-22T08:53:50.221Z,3.30
2023-02-22T08:56:53.173Z,3.30
2023-02-22T08:59:57.459Z,3.67
2023-02-22T09:03:00.617Z,3.38
2023-02-22T09:06:05.049Z,3.72
2023-02-22T09:09:08.104Z,3.72
2023-02-22T09:12:11.301Z,3.63
2023-02-22T09:15:16.374Z,3.70
2023-02-22T09:18:21.105Z,3.58
2023-02-22T09:21:24.173Z,3.85
2023-02-22T09:24:27.970Z,4.55
2023-02-22T09:27:30.949Z,4.20
2023-02-22T09:30:37.393Z,4.70
2023-02-22T09:33:42.355Z,4.40
2023-02-22T09:36:46.627Z,4.70
2023-02-22T09:39:51.289Z,5.00
2023-02-22T09:43:03.575Z,5.10
2023-02-22T09:46:19.409Z,4.75
2023-02-22T09:49:26.110Z,4.20
2023-02-22T09:52:32.519Z,4.22
2023-02-22T09:55:39.102Z,4.30
2023-02-22T09:58:46.016Z,4.43
2023-02-22T10:01:58.406Z,3.67
2023-02-22T10:05:06.670Z,4.40
2023-02-22T10:08:14.245Z,5.15
2023-02-22T10:11:28.917Z,4.43
2023-02-22T10:15:06.304Z,4.30
2023-02-22T10:18:33.802Z,3.92
2023-02-22T10:21:55.137Z,4.05
2023-02-22T10:25:02.318Z,4.13
2023-02-22T10:28:14.521Z,3.85
2023-02-22T10:31:22.890Z,4.55
2023-02-22T10:34:29.358Z,3.72
2023-02-22T10:37:34.368Z,4.03
2023-02-22T10:40:39.325Z,4.13
2023-02-22T10:43:44.144Z,4.03
2023-02-22T10:46:48.461Z,4.32
2023-02-22T10:49:56.642Z,3.92
2023-02-22T10:52:59.571Z,4.43
2023-02-22T10:56:15.821Z,3.97
2023-02-22T10:59:29.701Z,3.63
2023-02-22T11:02:35.168Z,3.72
2023-02-22T11:05:41.327Z,4.35
2023-02-22T11:08:46.466Z,4.68
2023-02-22T11:11:51.197Z,4.10
2023-02-22T11:14:54.414Z,4.60
2023-02-22T11:18:01.387Z,4.15
2023-02-22T11:21:10.280Z,4.47
2023-02-22T11:27:28.451Z,4.47
2023-02-22T11:30:35.139Z,4.05
2023-02-22T11:33:38.993Z,3.83
2023-02-22T11:36:44.170Z,3.85
2023-02-22T11:39:47.229Z,3.92
2023-02-22T11:43:08.326Z,4.03
2023-02-22T11:46:14.790Z,3.78
2023-02-22T11:49:20.108Z,3.50
2023-02-22T11:52:30.970Z,3.47
2023-02-22T11:55:43.233Z,3.88
2023-02-22T11:58:51.657Z,3.95
2023-02-22T12:01:59.979Z,3.70
2023-02-22T12:05:24.093Z,3.97
2023-02-22T12:08:37.661Z,3.47
2023-02-22T12:11:51.204Z,4.28
2023-02-22T12:15:13.680Z,4.55
2023-02-22T12:18:23.193Z,3.75
2023-02-22T12:21:29.856Z,3.00
2023-02-22T12:24:40.796Z,3.80
2023-02-22T12:27:49.252Z,3.28
2023-02-22T12:30:58.349Z,3.63
2023-02-22T12:34:09.522Z,3.40
2023-02-22T12:37:18.573Z,3.65
2023-02-22T12:40:31.808Z,3.40
2023-02-22T12:43:41.764Z,3.75
2023-02-22T12:46:49.346Z,3.55
2023-02-22T12:50:00.378Z,3.38
2023-02-22T12:53:14.008Z,3.67
2023-02-22T12:56:25.281Z,3.67
2023-02-22T12:59:34.453Z,3.65
2023-02-22T13:02:43.681Z,3.22
2023-02-22T13:05:53.612Z,3.65
2023-02-22T13:09:09.695Z,3.28
2023-02-22T13:12:20.298Z,3.33
2023-02-22T13:15:30.370Z,3.22
2023-02-22T13:18:42.023Z,3.63
2023-02-22T13:21:50.670Z,3.30
2023-02-22T13:25:12.276Z,4.00
2023-02-22T13:28:23.887Z,3.22
2023-02-22T13:31:47.602Z,3.53
2023-02-22T13:35:03.025Z,3.35
2023-02-22T13:38:41.898Z,3.50
2023-02-22T13:42:09.501Z,3.20
2023-02-22T13:45:53.146Z,3.33
2023-02-22T13:49:34.283Z,3.22
2023-02-22T13:52:40.728Z,3.38
2023-02-22T13:55:49.597Z,3.50
2023-02-22T13:58:54.907Z,2.90
2023-02-22T14:02:04.253Z,2.85
2023-02-22T14:05:51.127Z,3.03
2023-02-22T14:08:54.205Z,2.92
2023-02-22T14:11:57.838Z,2.72
2023-02-22T14:15:29.809Z,2.83
2023-02-22T14:18:38.938Z,2.72
2023-02-22T14:21:57.921Z,3.17
2023-02-22T14:25:00.873Z,3.17
2023-02-22T14:28:06.288Z,3.08
2023-02-22T14:31:17.464Z,3.33
2023-02-22T14:34:42.504Z,3.00
2023-02-22T14:37:50.600Z,3.08
2023-02-22T14:40:55.237Z,2.80
2023-02-22T14:44:03.785Z,2.72
2023-02-22T14:47:08.852Z,2.83
2023-02-22T14:50:23.175Z,2.97
2023-02-22T14:53:30.843Z,2.78
2023-02-22T14:56:41.296Z,3.47
2023-02-22T15:00:02.596Z,2.60
2023-02-22T15:03:05.888Z,2.90
2023-02-22T15:06:16.680Z,2.55
2023-02-22T15:09:27.711Z,2.97
2023-02-22T15:12:32.114Z,2.80
2023-02-22T15:15:36.014Z,2.47
2023-02-22T15:18:42.984Z,3.00
2023-02-22T15:21:50.023Z,3.00
2023-02-22T15:25:00.173Z,3.10
2023-02-22T15:28:05.318Z,2.72
2023-02-22T15:31:28.123Z,2.70
2023-02-22T15:34:33.109Z,3.15
2023-02-22T15:37:37.586Z,2.63
2023-02-22T15:40:43.246Z,2.95
2023-02-22T15:43:46.506Z,2.90
2023-02-22T15:46:49.643Z,2.45
2023-02-22T15:50:23.727Z,2.92
2023-02-22T15:53:32.525Z,2.50
2023-02-22T15:56:36.186Z,1.98
2023-02-22T15:59:44.884Z,2.78
2023-02-22T16:02:49.015Z,2.80
2023-02-22T16:05:55.616Z,2.90
2023-02-22T16:09:02.307Z,2.63
2023-02-22T16:12:10.297Z,2.75
2023-02-22T16:15:18.624Z,3.20
2023-02-22T16:18:28.484Z,2.75
2023-02-22T16:21:53.493Z,3.08
2023-02-22T16:25:16.645Z,2.83
2023-02-22T16:28:28.002Z,3.13
2023-02-22T16:31:33.880Z,3.08
2023-02-22T16:34:36.964Z,2.75
2023-02-22T16:37:39.980Z,3.00
2023-02-22T16:40:50.522Z,3.00
2023-02-22T16:43:55.375Z,2.63
2023-02-22T16:47:00.553Z,3.33
2023-02-22T16:50:03.732Z,3.20
2023-02-22T16:53:06.743Z,2.58
2023-02-22T16:56:16.163Z,2.33
2023-02-22T16:59:19.805Z,2.80
2023-02-22T17:02:23.189Z,3.50
2023-02-22T17:05:26.529Z,2.90
2023-02-22T17:08:29.581Z,2.42
2023-02-22T17:11:34.638Z,2.78
2023-02-22T17:14:37.781Z,2.83
2023-02-22T17:17:40.705Z,2.67
2023-02-22T17:20:44.998Z,3.22
2023-02-22T17:23:48.430Z,2.80
2023-02-22T17:26:53.138Z,2.85
2023-02-22T17:29:56.257Z,2.38
2023-02-22T17:33:03.611Z,2.60
2023-02-22T17:36:07.369Z,2.28
2023-02-22T17:39:10.972Z,2.83
2023-02-22T17:42:15.558Z,3.03
2023-02-22T17:45:18.533Z,2.47
2023-02-22T17:48:23.993Z,3.25
2023-02-22T17:51:27.417Z,2.50
2023-02-22T17:54:30.573Z,3.22
2023-02-22T17:57:35.613Z,2.55
2023-02-22T18:00:39.468Z,3.38
2023-02-22T18:03:42.421Z,2.80
2023-02-22T18:06:46.331Z,2.13
2023-02-22T18:09:49.913Z,2.67
2023-02-22T18:12:55.163Z,3.13
2023-02-22T18:16:00.040Z,2.80
2023-02-22T18:19:03.439Z,2.60
2023-02-22T18:22:08.289Z,2.40
2023-02-22T18:25:13.744Z,2.50
2023-02-22T18:28:19.278Z,2.60
2023-02-22T18:31:24.889Z,2.40
2023-02-22T18:34:28.173Z,2.70
2023-02-22T18:37:31.222Z,2.55
2023-02-22T18:40:34.786Z,2.90
2023-02-22T18:43:39.908Z,2.70
2023-02-22T18:46:44.499Z,2.63
2023-02-22T18:49:48.612Z,2.85
2023-02-22T18:52:51.688Z,2.85
2023-02-22T18:55:54.784Z,2.70
2023-02-22T18:59:01.644Z,3.50
2023-02-22T19:02:04.696Z,2.78
2023-02-22T19:05:09.874Z,2.47
2023-02-22T19:08:13.035Z,3.13
2023-02-22T19:11:19.313Z,3.10
2023-02-22T19:14:23.747Z,2.80
2023-02-22T19:17:28.576Z,3.17
2023-02-22T19:20:33.300Z,2.80
2023-02-22T19:23:37.488Z,3.28
2023-02-22T19:26:50.220Z,3.05
2023-02-22T19:29:54.809Z,3.05
2023-02-22T19:32:57.871Z,2.72
2023-02-22T19:36:01.014Z,2.65
2023-02-22T19:39:04.810Z,2.92
2023-02-22T19:42:09.720Z,3.28
2023-02-22T19:45:17.046Z,2.97
2023-02-22T19:48:20.771Z,3.40
2023-02-22T19:51:25.774Z,2.83
2023-02-22T19:54:29.079Z,3.03
2023-02-22T19:57:32.421Z,2.95
2023-02-22T20:00:37.220Z,3.10
2023-02-22T20:03:41.688Z,3.25
2023-02-22T20:06:46.495Z,3.50
2023-02-22T20:09:49.776Z,3.25
2023-02-22T20:12:52.766Z,3.40
2023-02-22T20:15:57.109Z,3.33
2023-02-22T20:19:00.561Z,2.90
2023-02-22T20:22:03.873Z,2.90
2023-02-22T20:25:07.410Z,3.08
2023-02-22T20:28:11.049Z,3.30
2023-02-22T20:31:17.179Z,3.17
2023-02-22T20:34:20.369Z,3.53
2023-02-22T20:37:23.301Z,3.33
2023-02-22T20:40:26.364Z,3.45
2023-02-22T20:43:29.384Z,3.38
2023-02-22T20:46:36.127Z,3.72
2023-02-22T20:49:39.800Z,3.35
2023-02-22T20:52:42.940Z,4.43
2023-02-22T20:55:50.381Z,3.85
2023-02-22T20:58:53.653Z,3.95
2023-02-22T21:01:58.237Z,3.40
2023-02-22T21:05:01.308Z,3.53
2023-02-22T21:08:04.291Z,4.22
2023-02-22T21:11:11.820Z,4.18
2023-02-22T21:14:18.755Z,3.42
2023-02-22T21:17:28.782Z,3.75
2023-02-22T21:20:32.074Z,3.58
2023-02-22T21:23:35.080Z,3.50
2023-02-22T21:26:38.152Z,4.05
2023-02-22T21:29:41.240Z,2.88
2023-02-22T21:32:45.739Z,3.50
2023-02-22T21:35:49.215Z,3.53
2023-02-22T21:38:54.902Z,3.10
2023-02-22T21:42:00.532Z,3.47
2023-02-22T21:45:03.788Z,3.65
2023-02-22T21:48:08.476Z,4.00
2023-02-22T21:51:13.896Z,3.70
2023-02-22T21:54:16.959Z,4.72
2023-02-22T21:57:20.463Z,3.80
2023-02-22T22:00:29.347Z,4.05
2023-02-22T22:03:36.281Z,3.60
2023-02-22T22:06:39.274Z,3.67
2023-02-22T22:09:43.284Z,3.83
2023-02-22T22:12:46.498Z,4.20
2023-02-22T22:15:49.726Z,4.10
2023-02-22T22:18:54.156Z,4.40
2023-02-22T22:21:57.515Z,4.30
2023-02-22T22:25:03.398Z,3.85
2023-02-22T22:28:07.812Z,4.07
2023-02-22T22:31:12.246Z,3.92
2023-02-22T22:34:16.727Z,4.00
2023-02-22T22:37:22.606Z,4.25
2023-02-22T22:40:25.638Z,4.22
2023-02-22T22:43:30.285Z,4.35
2023-02-22T22:46:33.404Z,4.63
2023-02-22T22:49:40.378Z,4.25
2023-02-22T22:52:43.357Z,4.75
2023-02-22T22:55:46.364Z,4.82
2023-02-22T22:58:51.083Z,4.38
2023-02-22T23:01:56.622Z,4.38
2023-02-22T23:05:01.181Z,4.40
2023-02-22T23:08:05.723Z,4.20
2023-02-22T23:11:09.635Z,4.05
2023-02-22T23:14:14.934Z,4.20
2023-02-22T23:17:31.453Z,4.68
2023-02-22T23:20:39.070Z,4.28
2023-02-22T23:23:42.221Z,4.15
2023-02-22T23:26:48.636Z,3.70
2023-02-22T23:29:52.520Z,4.18
2023-02-22T23:32:57.105Z,5.03
2023-02-22T23:36:01.429Z,4.28
2023-02-22T23:39:06.513Z,4.00
2023-02-22T23:42:09.690Z,3.85
2023-02-22T23:45:22.421Z,4.07
2023-02-22T23:48:26.284Z,3.90
2023-02-22T23:51:39.235Z,4.00
2023-02-22T23:54:44.103Z,4.25
2023-02-22T23:57:47.573Z,4.45
